Huntsville (HSV/KHSV)

Map

Destinations

Information

Location
Huntsville, AL
Local Time
14:44 / 2:44 pm
GMT Time
19:44 / 7:44 pm
Gates
Unassigned
No FAA reported delays
METAR KHSV 281853Z 19014KT 10SM SCT041 BKN050 29/21 A2993 RMK AO2 PK WND 18026/1754 SLP128 T02890206 $
TAF KHSV 281728Z 2818/2918 18010G17KT P6SM OVC040 FM290100 16012G19KT P6SM SCT015 OVC070 TEMPO 2910/2912 BKN015 FM291400 16014G22KT P6SM SCT070